»·PEaware :: DAL162 KBIL-KSLC

DAL162 :: KBIL-KSLC

FLIGHT INFORMATION

Flight Status: Arrived
Operator:
Delta Air Lines
More flights by this operator :: More flights under this callsign
Pilot: Anonymous 17611 (17611)
Aircraft: BOEING 737-900
(B739)
More flights by this aircraft type
Origin: KBIL Billings Logan Intl
United States
Destination: KSLC Salt Lake City Intl
United States
More flights between these airports :: More routes between these airports
Route: +BIL5 NELKS SYMPL JAC NORDK5
File this flight plan on PilotEdge
Remarks:
Altitude:
(Current/Filed)
34,000ft
Speed:
(Current/Filed)
460kts
Departed: 01-May-18 04:07 PM
Arrived: 01-May-18 05:13 PM
Distance/Time
Traveled:
336nm/1:06
Distance/Time
To Go:
Arrived

Flight Plot

Page will automatically refresh every two minutes.

Flight plan parsing failed; only flown route is shown


Map Options




Map Legend


Flown Route
Filed Route
Departure Airport
Arrival Airport
Navaid (VOR, NDB)
Fix

Horizontal Profiles

Position Reports

Time Latitude Longitude Heading Altitude Ground
Speed
01-May-18 15:40 45.804725 -108.535734 235 3660ft 0kts
01-May-18 15:41 45.804725 -108.535734 235 3660ft 0kts
01-May-18 15:42 45.804725 -108.535734 235 3660ft 0kts
01-May-18 15:43 45.804725 -108.535734 235 3660ft 0kts
01-May-18 15:44 45.804725 -108.535734 235 3660ft 0kts
01-May-18 15:45 45.804725 -108.535734 235 3660ft 0kts
01-May-18 15:46 45.804725 -108.535734 235 3660ft 0kts
01-May-18 15:47 45.804725 -108.535734 235 3660ft 0kts
01-May-18 15:48 45.804725 -108.535734 235 3660ft 0kts
01-May-18 15:49 45.804725 -108.535734 235 3660ft 0kts
01-May-18 15:50 45.804725 -108.535734 235 3660ft 0kts
01-May-18 15:51 45.804725 -108.535734 235 3660ft 0kts
01-May-18 15:52 45.804725 -108.535734 235 3660ft 0kts
01-May-18 15:53 45.804725 -108.535734 235 3660ft 0kts
01-May-18 15:54 45.804725 -108.535734 235 3660ft 0kts
01-May-18 15:55 45.804725 -108.535734 235 3660ft 0kts
01-May-18 15:56 45.804725 -108.535734 235 3660ft 0kts
01-May-18 15:57 45.804725 -108.535733 235 3660ft 0kts
01-May-18 15:58 45.804757 -108.535666 235 3660ft 2kts
01-May-18 15:59 45.805176 -108.535256 167 3660ft 2kts
01-May-18 16:00 45.805440 -108.535627 110 3660ft 0kts
01-May-18 16:01 45.805440 -108.535626 110 3659ft 0kts
01-May-18 16:02 45.805210 -108.534741 110 3659ft 10kts
01-May-18 16:03 45.803712 -108.526806 113 3660ft 26kts
01-May-18 16:04 45.801167 -108.517697 87 3660ft 10kts
01-May-18 16:05 45.801196 -108.517479 73 3660ft 1kts
01-May-18 16:06 45.803775 -108.522753 291 3660ft 88kts
01-May-18 16:07 45.820622 -108.585167 288 4974ft 216kts
01-May-18 16:08 45.845370 -108.679821 290 7171ft 273kts
01-May-18 16:09 45.810078 -108.755701 179 10030ft 294kts
01-May-18 16:10 45.722627 -108.756152 181 12421ft 330kts
01-May-18 16:11 45.634612 -108.792083 224 15594ft 343kts
01-May-18 16:12 45.566977 -108.888981 226 18729ft 357kts
01-May-18 16:13 45.496903 -108.990601 226 21616ft 371kts
01-May-18 16:14 45.424097 -109.095980 226 24239ft 384kts
01-May-18 16:15 45.348186 -109.205669 226 26599ft 398kts
01-May-18 16:16 45.265273 -109.312799 222 28740ft 410kts
01-May-18 16:17 45.180343 -109.419938 222 31084ft 408kts
01-May-18 16:18 45.089678 -109.510368 211 33236ft 402kts
01-May-18 16:19 45.005348 -109.580765 211 33936ft 419kts
01-May-18 16:20 44.947434 -109.629774 211 33937ft 434kts
01-May-18 16:21 44.847158 -109.714733 210 33936ft 436kts
01-May-18 16:22 44.743266 -109.802625 211 33937ft 437kts
01-May-18 16:23 44.640191 -109.889528 211 33941ft 437kts
01-May-18 16:24 44.536650 -109.976621 211 33935ft 436kts
01-May-18 16:25 44.432727 -110.063706 211 33923ft 436kts
01-May-18 16:26 44.328826 -110.150459 211 33898ft 437kts
01-May-18 16:27 44.226915 -110.235188 211 33904ft 437kts
01-May-18 16:28 44.125853 -110.318904 211 33923ft 437kts
01-May-18 16:29 44.022560 -110.404134 211 33942ft 436kts
01-May-18 16:30 43.918430 -110.489710 211 33943ft 437kts
01-May-18 16:31 43.819670 -110.570556 211 33947ft 436kts
01-May-18 16:32 43.715781 -110.655261 210 33946ft 437kts
01-May-18 16:33 43.612252 -110.741398 218 33940ft 436kts
01-May-18 16:34 43.522050 -110.852470 221 33945ft 436kts
01-May-18 16:35 43.431612 -110.964797 221 33954ft 441kts
01-May-18 16:36 43.340136 -111.077708 221 33962ft 445kts
01-May-18 16:37 43.249318 -111.189295 221 33955ft 447kts
01-May-18 16:38 43.157310 -111.301779 221 33944ft 447kts
01-May-18 16:39 43.064605 -111.414652 221 33939ft 447kts
01-May-18 16:40 42.972575 -111.526191 221 33929ft 437kts
01-May-18 16:41 42.883794 -111.633383 221 33927ft 423kts
01-May-18 16:42 42.796280 -111.738532 221 33937ft 422kts
01-May-18 16:43 42.707206 -111.841158 210 33932ft 422kts
01-May-18 16:44 42.592160 -111.874627 189 33916ft 428kts
01-May-18 16:45 42.475109 -111.894674 189 33903ft 428kts
01-May-18 16:46 42.358652 -111.914509 189 33895ft 428kts
01-May-18 16:48 42.243374 -111.934054 189 33896ft 428kts
01-May-18 16:49 42.129946 -111.953247 189 32944ft 418kts
01-May-18 16:50 42.012929 -111.972986 189 30387ft 425kts
01-May-18 16:51 41.898409 -111.992247 189 28329ft 410kts
01-May-18 16:52 41.787659 -112.010755 188 26117ft 401kts
01-May-18 16:53 41.678280 -112.027970 188 23924ft 393kts
01-May-18 16:54 41.571294 -112.044655 188 21797ft 385kts
01-May-18 16:55 41.467485 -112.061997 190 19717ft 377kts
01-May-18 16:56 41.365089 -112.084192 190 17699ft 368kts
01-May-18 16:57 41.266163 -112.105626 190 15783ft 359kts
01-May-18 16:58 41.174868 -112.125357 190 14367ft 340kts
01-May-18 16:59 41.100211 -112.141461 190 13443ft 340kts
01-May-18 17:00 41.025519 -112.138086 171 12529ft 340kts
01-May-18 17:01 40.951108 -112.121727 170 11613ft 335kts
01-May-18 17:02 40.862940 -112.105699 174 11020ft 330kts
01-May-18 17:03 40.771227 -112.094806 175 11018ft 332kts
01-May-18 17:04 40.679091 -112.083955 175 11018ft 332kts
01-May-18 17:05 40.587109 -112.073143 175 10529ft 334kts
01-May-18 17:06 40.503686 -112.063420 175 10008ft 273kts
01-May-18 17:07 40.471492 -111.990575 82 10010ft 271kts
01-May-18 17:08 40.524552 -111.951876 341 9188ft 264kts
01-May-18 17:09 40.597248 -111.970827 353 7800ft 269kts
01-May-18 17:10 40.670843 -111.981005 353 6311ft 255kts
01-May-18 17:11 40.726011 -111.988664 353 5253ft 205kts
01-May-18 17:12 40.775456 -111.995509 354 4260ft 163kts
01-May-18 17:13 40.794954 -111.996558 45 4223ft 11kts
01-May-18 17:14 40.795056 -111.996416 48 4223ft 0kts
01-May-18 17:15 40.792341 -111.995359 174 4223ft 21kts
01-May-18 17:16 40.791141 -111.988985 135 4223ft 5kts
01-May-18 17:17 40.789088 -111.985752 114 4223ft 0kts

Navigation Log

Ident Type
Flight plan parsing failed, navigation log unavailable